Time;durP1;ratioP1;P1;durP2;ratioP2;P2;SDS_P1;SDS_P2;PMS_P1;PMS_P2;Temp;Humidity;BMP_temperature;BMP_pressure;BME280_temperature;BME280_humidity;BME280_pressure;Samples;Min_cycle;Max_cycle;Signal;HPM_P1;HPM_P2
2022/09/01 00:01:28;;;;;;;;;;;15.60;99.90;;;;;;5042822;28;20327;-70
2022/09/01 00:03:58;;;;;;;;;;;15.60;99.90;;;;;;5038991;28;20122;-70
2022/09/01 00:06:24;;;;;;;;;;;15.60;99.90;;;;;;5026166;28;19933;-71
2022/09/01 00:08:51;;;;;;;;;;;15.70;99.90;;;;;;5027381;28;19916;-70
2022/09/01 00:11:17;;;;;;;;;;;15.80;99.90;;;;;;5033798;28;19924;-70
2022/09/01 00:13:42;;;;;;;;;;;15.80;99.90;;;;;;5033350;28;19932;-70
2022/09/01 00:16:08;;;;;;;;;;;15.90;99.90;;;;;;5025826;28;19917;-71
2022/09/01 00:18:34;;;;;;;;;;;16.00;99.90;;;;;;5031741;28;20589;-70
2022/09/01 00:21:00;;;;;;;;;;;16.00;99.90;;;;;;5034752;28;20027;-70
2022/09/01 00:23:26;;;;;;;;;;;16.00;99.90;;;;;;5028726;28;19966;-71
2022/09/01 00:25:52;;;;;;;;;;;16.10;99.90;;;;;;5030901;28;20295;-70
2022/09/01 00:28:18;;;;;;;;;;;16.10;99.90;;;;;;5036230;28;19916;-71
2022/09/01 00:30:43;;;;;;;;;;;16.20;99.90;;;;;;5032313;28;20206;-71
2022/09/01 00:33:09;;;;;;;;;;;16.20;99.90;;;;;;5037927;28;19974;-70
2022/09/01 00:35:34;;;;;;;;;;;16.30;99.90;;;;;;5034243;28;19948;-71
2022/09/01 00:38:00;;;;;;;;;;;16.30;99.90;;;;;;5035056;28;20380;-71
2022/09/01 00:40:25;;;;;;;;;;;16.30;99.90;;;;;;5033220;28;19913;-70
2022/09/01 00:42:52;;;;;;;;;;;16.40;99.90;;;;;;5024962;28;20435;-71
2022/09/01 00:45:20;;;;;;;;;;;16.40;99.90;;;;;;5035923;28;19949;-70
2022/09/01 00:47:46;;;;;;;;;;;16.50;99.90;;;;;;5036700;28;20163;-71
2022/09/01 00:50:12;;;;;;;;;;;16.50;99.90;;;;;;5036242;28;19920;-70
2022/09/01 00:52:40;;;;;;;;;;;16.40;99.90;;;;;;5034416;28;19928;-71
2022/09/01 00:55:12;;;;;;;;;;;16.40;99.90;;;;;;5015621;28;19954;-71
2022/09/01 00:57:38;;;;;;;;;;;16.40;99.90;;;;;;5025344;28;19917;-71
2022/09/01 01:00:06;;;;;;;;;;;16.30;99.90;;;;;;5034340;28;19920;-71
2022/09/01 01:02:32;;;;;;;;;;;16.30;99.90;;;;;;5017912;28;19936;-71
2022/09/01 01:04:58;;;;;;;;;;;16.30;99.90;;;;;;5024179;28;19923;-71
2022/09/01 01:07:26;;;;;;;;;;;16.40;99.90;;;;;;5019164;28;19933;-71
2022/09/01 01:09:52;;;;;;;;;;;16.50;99.90;;;;;;5029158;28;19975;-70
2022/09/01 01:12:18;;;;;;;;;;;16.60;99.90;;;;;;5032051;28;20440;-71
2022/09/01 01:14:44;;;;;;;;;;;16.60;99.90;;;;;;5026380;28;19924;-71
2022/09/01 01:17:10;;;;;;;;;;;16.60;99.90;;;;;;5030198;28;19960;-70
2022/09/01 01:25:21;;;;;;;;;;;16.80;99.90;;;;;;5035513;28;19923;-71
2022/09/01 01:27:47;;;;;;;;;;;16.80;99.90;;;;;;5036797;28;19912;-71
2022/09/01 01:30:13;;;;;;;;;;;16.80;99.90;;;;;;5041876;28;19946;-71
2022/09/01 01:32:41;;;;;;;;;;;16.90;99.90;;;;;;5038853;28;19971;-71
2022/09/01 01:35:13;;;;;;;;;;;16.80;99.90;;;;;;5028986;28;19917;-71
2022/09/01 01:37:40;;;;;;;;;;;16.90;99.90;;;;;;5036175;28;19947;-72
2022/09/01 01:40:14;;;;;;;;;;;16.80;99.90;;;;;;5038796;28;19913;-72
2022/09/01 01:42:44;;;;;;;;;;;16.90;99.90;;;;;;5046749;28;19934;-71
2022/09/01 01:45:11;;;;;;;;;;;16.80;99.90;;;;;;5030602;28;19960;-71
2022/09/01 01:47:38;;;;;;;;;;;16.80;99.90;;;;;;5038721;28;20118;-71
2022/09/01 01:50:08;;;;;;;;;;;16.70;99.90;;;;;;5032046;28;20337;-71
2022/09/01 01:52:34;;;;;;;;;;;16.70;99.90;;;;;;5034359;28;20001;-72
2022/09/01 01:55:00;;;;;;;;;;;16.70;99.90;;;;;;5034545;28;19923;-71
2022/09/01 01:57:30;;;;;;;;;;;16.70;99.90;;;;;;5021235;28;19921;-72
2022/09/01 01:59:56;;;;;;;;;;;16.70;99.90;;;;;;5032651;28;19975;-72
2022/09/01 02:02:22;;;;;;;;;;;16.70;99.90;;;;;;5040418;28;19966;-71
2022/09/01 02:04:47;;;;;;;;;;;16.80;99.90;;;;;;5043159;28;19929;-71
2022/09/01 02:07:13;;;;;;;;;;;16.70;99.90;;;;;;5035935;28;20035;-71
2022/09/01 02:09:39;;;;;;;;;;;16.70;99.90;;;;;;5033014;28;19928;-71
2022/09/01 02:12:06;;;;;;;;;;;16.60;99.90;;;;;;5035395;28;19917;-71
2022/09/01 02:14:32;;;;;;;;;;;16.60;99.90;;;;;;5035222;28;20704;-71
2022/09/01 02:16:58;;;;;;;;;;;16.50;99.90;;;;;;5035174;28;19950;-71
2022/09/01 02:19:23;;;;;;;;;;;16.50;99.90;;;;;;5034101;28;20129;-72
2022/09/01 02:21:53;;;;;;;;;;;16.40;99.90;;;;;;5021465;28;20355;-71
2022/09/01 02:24:19;;;;;;;;;;;16.40;99.90;;;;;;5034866;28;19956;-71
2022/09/01 02:26:46;;;;;;;;;;;16.40;99.90;;;;;;5036062;28;19917;-73
2022/09/01 02:29:20;;;;;;;;;;;16.50;99.90;;;;;;5037137;28;20291;-73
2022/09/01 02:31:47;;;;;;;;;;;16.50;99.90;;;;;;5032387;28;20598;-74
2022/09/01 02:34:13;;;;;;;;;;;16.50;99.90;;;;;;5035491;28;20017;-74
2022/09/01 02:36:57;;;;;;;;;;;16.50;99.90;;;;;;5038395;28;19992;-74
2022/09/01 02:39:25;;;;;;;;;;;16.60;99.90;;;;;;5031450;28;19975;-74
2022/09/01 02:41:51;;;;;;;;;;;16.70;99.90;;;;;;5035688;28;20007;-73
2022/09/01 02:44:20;;;;;;;;;;;16.70;99.90;;;;;;5036652;28;19913;-73
2022/09/01 02:46:49;;;;;;;;;;;16.70;99.90;;;;;;5034461;28;20473;-73
2022/09/01 02:49:19;;;;;;;;;;;16.90;99.90;;;;;;5029157;28;19928;-73
2022/09/01 02:51:47;;;;;;;;;;;16.90;99.90;;;;;;5022263;28;20035;-73
2022/09/01 02:54:17;;;;;;;;;;;17.00;99.90;;;;;;5032456;28;19917;-74
2022/09/01 02:56:46;;;;;;;;;;;17.00;99.90;;;;;;5033172;28;20392;-74
2022/09/01 02:59:15;;;;;;;;;;;17.00;99.90;;;;;;5036450;28;19920;-73
2022/09/01 03:01:42;;;;;;;;;;;17.00;99.90;;;;;;5038978;28;20450;-74
2022/09/01 03:04:10;;;;;;;;;;;17.00;99.90;;;;;;5038423;28;20735;-74
2022/09/01 03:06:36;;;;;;;;;;;16.90;99.90;;;;;;5033022;28;20065;-73
2022/09/01 03:09:05;;;;;;;;;;;16.90;99.90;;;;;;5035721;28;19917;-74
2022/09/01 03:11:31;;;;;;;;;;;16.90;99.90;;;;;;5034307;28;20006;-74
2022/09/01 03:13:57;;;;;;;;;;;17.00;99.90;;;;;;5030532;28;19917;-74
2022/09/01 03:16:23;;;;;;;;;;;16.90;99.90;;;;;;5045886;28;19940;-74
2022/09/01 03:18:49;;;;;;;;;;;16.90;99.90;;;;;;5043782;28;20372;-74
2022/09/01 03:21:15;;;;;;;;;;;16.90;99.90;;;;;;5042257;28;19956;-73
2022/09/01 03:23:42;;;;;;;;;;;16.90;99.90;;;;;;5041386;28;20109;-73
2022/09/01 03:26:08;;;;;;;;;;;16.90;99.90;;;;;;5043293;28;19913;-74
2022/09/01 03:28:36;;;;;;;;;;;17.00;99.90;;;;;;5040708;28;19924;-74
2022/09/01 03:31:02;;;;;;;;;;;17.00;99.90;;;;;;5038869;28;19932;-74
2022/09/01 03:33:28;;;;;;;;;;;17.00;99.90;;;;;;5040318;28;19912;-73
2022/09/01 03:35:54;;;;;;;;;;;17.00;99.90;;;;;;5039428;28;19916;-73
2022/09/01 03:38:20;;;;;;;;;;;17.00;99.90;;;;;;5039615;28;19967;-73
2022/09/01 03:40:46;;;;;;;;;;;17.00;99.90;;;;;;5039103;28;20020;-74
2022/09/01 03:43:12;;;;;;;;;;;17.00;99.90;;;;;;5019474;28;20012;-73
2022/09/01 03:45:39;;;;;;;;;;;16.90;99.90;;;;;;5035036;28;20014;-73
2022/09/01 03:48:07;;;;;;;;;;;17.00;99.90;;;;;;5031442;28;20285;-74
2022/09/01 03:50:46;;;;;;;;;;;17.00;99.90;;;;;;5033262;28;19920;-73
2022/09/01 03:53:13;;;;;;;;;;;16.90;99.90;;;;;;5040123;28;19916;-73
2022/09/01 03:55:39;;;;;;;;;;;16.90;99.90;;;;;;5040089;28;19948;-73
2022/09/01 03:58:06;;;;;;;;;;;16.90;99.90;;;;;;5040424;28;19917;-73
2022/09/01 04:00:34;;;;;;;;;;;16.90;99.90;;;;;;5039072;28;19920;-73
2022/09/01 04:03:01;;;;;;;;;;;16.90;99.90;;;;;;5036968;28;19917;-74
2022/09/01 04:05:28;;;;;;;;;;;17.00;99.90;;;;;;5031966;28;20396;-73
2022/09/01 04:07:55;;;;;;;;;;;17.00;99.90;;;;;;5016659;28;19920;-73
2022/09/01 04:10:21;;;;;;;;;;;17.10;99.90;;;;;;5030133;28;19929;-73
2022/09/01 04:12:47;;;;;;;;;;;17.10;99.90;;;;;;5026582;28;20036;-74
2022/09/01 04:15:13;;;;;;;;;;;17.30;99.90;;;;;;5036326;28;20416;-74
2022/09/01 04:20:23;;;;;;;;;;;17.40;99.90;;;;;;5033178;28;19948;-73
2022/09/01 04:22:50;;;;;;;;;;;17.50;99.90;;;;;;5033582;28;20382;-73
2022/09/01 04:25:17;;;;;;;;;;;17.50;99.90;;;;;;5037962;28;19916;-74
2022/09/01 04:27:46;;;;;;;;;;;17.60;99.90;;;;;;5038784;28;19917;-73
2022/09/01 04:30:11;;;;;;;;;;;17.60;99.90;;;;;;5038529;28;20268;-73
2022/09/01 04:32:39;;;;;;;;;;;17.60;99.90;;;;;;5032606;28;19936;-74
2022/09/01 04:35:06;;;;;;;;;;;17.70;99.90;;;;;;5027573;28;20024;-74
2022/09/01 04:37:31;;;;;;;;;;;17.60;99.90;;;;;;5035680;28;20011;-74
2022/09/01 04:39:57;;;;;;;;;;;17.60;99.90;;;;;;5023820;28;20240;-73
2022/09/01 04:42:27;;;;;;;;;;;17.70;99.90;;;;;;5032835;28;19967;-73
2022/09/01 04:44:56;;;;;;;;;;;17.60;99.90;;;;;;5035879;28;20291;-73
2022/09/01 04:47:28;;;;;;;;;;;17.60;99.90;;;;;;5038102;28;19921;-74
2022/09/01 04:49:59;;;;;;;;;;;17.60;99.90;;;;;;5028552;28;19940;-73
2022/09/01 04:52:27;;;;;;;;;;;17.70;99.90;;;;;;5038350;28;19920;-73
2022/09/01 04:54:53;;;;;;;;;;;17.70;99.90;;;;;;5033442;28;19923;-74
2022/09/01 04:57:19;;;;;;;;;;;17.60;99.90;;;;;;5037302;28;19920;-74
2022/09/01 04:59:45;;;;;;;;;;;17.60;99.90;;;;;;5036421;28;19944;-74
2022/09/01 05:02:11;;;;;;;;;;;17.60;99.90;;;;;;5034740;28;19952;-73
2022/09/01 05:04:36;;;;;;;;;;;17.60;99.90;;;;;;5033695;28;19923;-73
2022/09/01 05:07:03;;;;;;;;;;;17.60;99.90;;;;;;5035360;28;20681;-73
2022/09/01 05:09:30;;;;;;;;;;;17.60;99.90;;;;;;5031461;28;19916;-74
2022/09/01 05:11:56;;;;;;;;;;;17.70;99.90;;;;;;5040084;28;19916;-74
2022/09/01 05:14:23;;;;;;;;;;;17.70;99.90;;;;;;5028154;28;20015;-74
2022/09/01 05:16:49;;;;;;;;;;;17.60;99.90;;;;;;5040754;28;20406;-73
2022/09/01 05:19:16;;;;;;;;;;;17.60;99.90;;;;;;5038212;28;20234;-73
2022/09/01 05:21:46;;;;;;;;;;;17.60;99.90;;;;;;5038284;28;20435;-74
2022/09/01 05:24:13;;;;;;;;;;;17.50;99.90;;;;;;5038084;28;20375;-73
2022/09/01 05:26:39;;;;;;;;;;;17.50;99.90;;;;;;5032104;28;20004;-74
2022/09/01 05:29:12;;;;;;;;;;;17.50;99.90;;;;;;5028645;28;20506;-74
2022/09/01 05:31:39;;;;;;;;;;;17.40;99.90;;;;;;5029219;28;19944;-74
2022/09/01 05:34:08;;;;;;;;;;;17.30;99.90;;;;;;5039010;28;20352;-74
2022/09/01 05:36:35;;;;;;;;;;;17.30;99.90;;;;;;5021618;28;20019;-74
2022/09/01 05:39:02;;;;;;;;;;;17.30;99.90;;;;;;5033440;28;20003;-74
2022/09/01 05:41:27;;;;;;;;;;;17.30;99.90;;;;;;5041107;28;19994;-74
2022/09/01 05:43:53;;;;;;;;;;;17.40;99.90;;;;;;5041267;28;19916;-74
2022/09/01 05:46:21;;;;;;;;;;;17.50;99.90;;;;;;5043589;28;19917;-74
2022/09/01 05:48:48;;;;;;;;;;;17.50;99.90;;;;;;5038598;28;19927;-74
2022/09/01 05:51:18;;;;;;;;;;;17.60;99.90;;;;;;5038554;28;20015;-74
2022/09/01 05:53:50;;;;;;;;;;;17.60;99.90;;;;;;5042973;28;19917;-73
2022/09/01 05:56:16;;;;;;;;;;;17.60;99.90;;;;;;5041176;28;19924;-74
2022/09/01 05:58:44;;;;;;;;;;;17.60;99.90;;;;;;5042279;28;19924;-74
2022/09/01 06:01:15;;;;;;;;;;;17.70;99.90;;;;;;5037649;28;19924;-73
2022/09/01 06:03:43;;;;;;;;;;;17.70;99.90;;;;;;5040174;28;19929;-74
2022/09/01 06:06:11;;;;;;;;;;;17.80;99.90;;;;;;5044307;28;19995;-74
2022/09/01 06:08:36;;;;;;;;;;;17.80;99.90;;;;;;5043434;28;20299;-73
2022/09/01 06:11:11;;;;;;;;;;;17.90;99.90;;;;;;5043263;28;19924;-73
2022/09/01 06:13:40;;;;;;;;;;;17.90;99.90;;;;;;5040864;28;20396;-73
2022/09/01 06:16:10;;;;;;;;;;;17.90;99.90;;;;;;5049080;28;20049;-74
2022/09/01 06:18:37;;;;;;;;;;;18.00;99.90;;;;;;5044565;28;19912;-72
2022/09/01 06:21:04;;;;;;;;;;;18.00;99.90;;;;;;5052137;28;19916;-74
2022/09/01 06:23:30;;;;;;;;;;;18.00;99.90;;;;;;5028132;28;20146;-73
2022/09/01 06:25:58;;;;;;;;;;;18.00;99.90;;;;;;5050064;28;20406;-74
2022/09/01 06:28:24;;;;;;;;;;;18.10;99.90;;;;;;5047720;28;20236;-74
2022/09/01 06:30:50;;;;;;;;;;;18.20;99.90;;;;;;5046608;28;19931;-74
2022/09/01 06:33:16;;;;;;;;;;;18.20;99.90;;;;;;5043281;28;19921;-74
2022/09/01 06:35:43;;;;;;;;;;;18.20;99.90;;;;;;5049298;28;19952;-74
2022/09/01 06:38:10;;;;;;;;;;;18.20;99.90;;;;;;5046859;28;19916;-73
2022/09/01 06:40:38;;;;;;;;;;;18.30;99.90;;;;;;5052028;28;19919;-74
2022/09/01 06:43:06;;;;;;;;;;;18.30;99.90;;;;;;5050132;28;19999;-74
2022/09/01 06:45:34;;;;;;;;;;;18.40;99.90;;;;;;5050239;28;19916;-73
2022/09/01 06:48:00;;;;;;;;;;;18.50;99.90;;;;;;5050899;28;20167;-74
2022/09/01 06:50:26;;;;;;;;;;;18.50;99.90;;;;;;5042271;28;20330;-74
2022/09/01 06:53:00;;;;;;;;;;;18.60;99.90;;;;;;5037505;28;19939;-74
2022/09/01 06:55:30;;;;;;;;;;;18.80;99.90;;;;;;5032577;28;19917;-74
2022/09/01 06:57:56;;;;;;;;;;;18.90;99.90;;;;;;5040619;28;19924;-74
2022/09/01 07:00:22;;;;;;;;;;;19.00;99.90;;;;;;5041608;28;19917;-74
2022/09/01 07:02:53;;;;;;;;;;;19.10;99.90;;;;;;5042700;28;19924;-74
2022/09/01 07:05:20;;;;;;;;;;;19.30;99.90;;;;;;5043426;28;19998;-73
2022/09/01 07:07:50;;;;;;;;;;;19.60;99.90;;;;;;5044269;28;19924;-74
2022/09/01 07:10:21;;;;;;;;;;;19.80;99.90;;;;;;5041332;28;19935;-74
2022/09/01 07:12:48;;;;;;;;;;;20.00;99.90;;;;;;5034229;28;19923;-73
2022/09/01 07:15:16;;;;;;;;;;;20.20;99.90;;;;;;5037745;28;19924;-73
2022/09/01 07:17:48;;;;;;;;;;;20.40;99.90;;;;;;5039575;28;20376;-74
2022/09/01 07:20:14;;;;;;;;;;;20.50;99.90;;;;;;5038238;28;20070;-73
2022/09/01 07:22:40;;;;;;;;;;;20.70;99.90;;;;;;5029832;28;20516;-73
2022/09/01 07:25:10;;;;;;;;;;;20.70;99.90;;;;;;5041426;28;19913;-73
2022/09/01 07:27:35;;;;;;;;;;;20.70;99.90;;;;;;5032756;28;19942;-74
2022/09/01 07:30:01;;;;;;;;;;;20.70;99.90;;;;;;5039377;28;20356;-74
2022/09/01 07:32:28;;;;;;;;;;;20.80;99.90;;;;;;5044159;28;19921;-73
2022/09/01 07:34:54;;;;;;;;;;;21.10;99.90;;;;;;5022168;28;19921;-73
2022/09/01 07:37:21;;;;;;;;;;;21.40;99.90;;;;;;5043397;28;19923;-73
2022/09/01 07:39:47;;;;;;;;;;;21.50;99.90;;;;;;5041561;28;20357;-74
2022/09/01 07:42:16;;;;;;;;;;;21.60;99.90;;;;;;5025140;28;19939;-74
2022/09/01 07:44:41;;;;;;;;;;;21.60;99.90;;;;;;5024070;28;19972;-74
2022/09/01 07:47:08;;;;;;;;;;;21.90;99.90;;;;;;5013645;23;19929;-70
2022/09/01 07:49:36;;;;;;;;;;;22.10;99.90;;;;;;5011886;28;19925;-72
2022/09/01 07:52:02;;;;;;;;;;;22.20;99.90;;;;;;5014746;28;19924;-70
2022/09/01 07:54:29;;;;;;;;;;;22.30;99.90;;;;;;5018427;28;19917;-71
2022/09/01 07:56:54;;;;;;;;;;;22.40;99.90;;;;;;5019046;28;19975;-71
2022/09/01 07:59:20;;;;;;;;;;;22.30;99.90;;;;;;5000931;28;19917;-71
2022/09/01 08:01:46;;;;;;;;;;;22.30;99.90;;;;;;5010798;28;19928;-71
2022/09/01 08:04:12;;;;;;;;;;;22.20;99.90;;;;;;5013156;28;20449;-71
2022/09/01 08:06:38;;;;;;;;;;;22.20;99.90;;;;;;5015739;28;20004;-71
2022/09/01 08:09:07;;;;;;;;;;;22.40;99.90;;;;;;4999475;28;20055;-72
2022/09/01 08:11:32;;;;;;;;;;;22.90;99.90;;;;;;5018301;28;20458;-72
2022/09/01 08:13:58;;;;;;;;;;;23.30;99.90;;;;;;5017097;28;20204;-70
2022/09/01 08:16:28;;;;;;;;;;;23.30;99.90;;;;;;5013724;28;19940;-71
2022/09/01 08:18:54;;;;;;;;;;;23.00;99.90;;;;;;4997004;28;19947;-69
2022/09/01 08:21:22;;;;;;;;;;;22.70;99.90;;;;;;5015959;28;19952;-71
2022/09/01 08:23:48;;;;;;;;;;;22.60;99.90;;;;;;4997109;28;20059;-70
2022/09/01 08:26:15;;;;;;;;;;;22.10;99.90;;;;;;5014523;28;19963;-69
2022/09/01 08:28:41;;;;;;;;;;;22.00;99.90;;;;;;5009266;28;19935;-69
2022/09/01 08:31:09;;;;;;;;;;;21.90;99.90;;;;;;5008431;28;20445;-70
2022/09/01 08:33:35;;;;;;;;;;;22.20;99.90;;;;;;5008571;28;19928;-71
2022/09/01 08:36:01;;;;;;;;;;;22.40;99.90;;;;;;5003153;28;19924;-71
2022/09/01 08:38:27;;;;;;;;;;;22.50;99.90;;;;;;5014517;28;20156;-71
2022/09/01 08:40:54;;;;;;;;;;;22.40;99.90;;;;;;4990720;28;19917;-71
2022/09/01 08:43:36;;;;;;;;;;;22.10;99.90;;;;;;5010131;28;19932;-69
2022/09/01 08:46:12;;;;;;;;;;;21.90;99.90;;;;;;5004256;28;20304;-71
2022/09/01 08:49:02;;;;;;;;;;;22.00;99.90;;;;;;5006343;28;20004;-71
2022/09/01 08:51:46;;;;;;;;;;;22.10;99.90;;;;;;5015477;28;19987;-71
2022/09/01 08:54:11;;;;;;;;;;;22.10;99.90;;;;;;5011188;28;19935;-71
2022/09/01 08:56:37;;;;;;;;;;;22.10;99.90;;;;;;5016750;28;19921;-71
2022/09/01 08:59:05;;;;;;;;;;;22.10;99.90;;;;;;5038814;28;19984;-70
2022/09/01 09:01:40;;;;;;;;;;;22.20;99.90;;;;;;5011011;28;19967;-71
2022/09/01 09:04:06;;;;;;;;;;;22.40;99.90;;;;;;5017324;28;19940;-71
2022/09/01 09:06:31;;;;;;;;;;;22.30;99.90;;;;;;4996168;28;20349;-71
2022/09/01 09:09:02;;;;;;;;;;;22.40;99.90;;;;;;5001226;28;20028;-70
2022/09/01 09:11:46;;;;;;;;;;;22.60;99.90;;;;;;4980831;28;19979;-71
2022/09/01 09:14:36;;;;;;;;;;;22.70;99.90;;;;;;4980848;28;19928;-70
2022/09/01 09:17:03;;;;;;;;;;;23.30;99.90;;;;;;4984591;28;19922;-71
2022/09/01 09:19:28;;;;;;;;;;;23.70;99.90;;;;;;5014085;23;19928;-73
2022/09/01 09:21:55;;;;;;;;;;;24.00;99.90;;;;;;5055618;28;19923;-72
2022/09/01 09:24:46;;;;;;;;;;;24.40;99.90;;;;;;5063268;28;20494;-73
2022/09/01 09:27:22;;;;;;;;;;;25.00;99.90;;;;;;5067132;28;20105;-73
2022/09/01 09:29:55;;;;;;;;;;;25.80;99.90;;;;;;5064368;28;19969;-72
2022/09/01 09:32:21;;;;;;;;;;;25.80;99.90;;;;;;5071225;28;19919;-73
2022/09/01 09:34:47;;;;;;;;;;;26.10;99.90;;;;;;5066467;28;19916;-73
2022/09/01 09:37:29;;;;;;;;;;;26.50;98.50;;;;;;5063228;28;20221;-73
2022/09/01 09:40:08;;;;;;;;;;;27.40;97.10;;;;;;5076258;28;20274;-72
2022/09/01 09:42:34;;;;;;;;;;;29.20;97.10;;;;;;5073511;28;19920;-72
2022/09/01 09:45:02;;;;;;;;;;;29.60;92.30;;;;;;5071998;28;19926;-73
2022/09/01 09:47:33;;;;;;;;;;;30.30;89.80;;;;;;5083423;28;20290;-73
2022/09/01 09:50:18;;;;;;;;;;;30.20;91.30;;;;;;5072596;28;19924;-73
2022/09/01 09:52:45;;;;;;;;;;;30.70;87.40;;;;;;5073473;28;19916;-73
2022/09/01 09:55:21;;;;;;;;;;;30.60;85.80;;;;;;5070120;28;20340;-73
2022/09/01 09:57:48;;;;;;;;;;;30.20;82.90;;;;;;5072066;28;19923;-73
2022/09/01 10:00:14;;;;;;;;;;;30.00;85.70;;;;;;5063530;28;19916;-73
2022/09/01 10:02:43;;;;;;;;;;;30.50;90.00;;;;;;5053606;28;19920;-73
2022/09/01 10:05:28;;;;;;;;;;;29.90;85.60;;;;;;5070102;28;19916;-73
2022/09/01 10:07:55;;;;;;;;;;;29.10;87.30;;;;;;5081389;28;19932;-73
2022/09/01 10:10:29;;;;;;;;;;;29.10;88.00;;;;;;5060321;28;19928;-72
2022/09/01 10:12:56;;;;;;;;;;;29.80;91.30;;;;;;5066031;28;20014;-73
2022/09/01 10:15:24;;;;;;;;;;;30.20;87.80;;;;;;5066466;28;19942;-72
2022/09/01 10:17:51;;;;;;;;;;;30.30;84.60;;;;;;5067420;28;19916;-73
2022/09/01 10:20:19;;;;;;;;;;;30.80;83.10;;;;;;5062860;28;20043;-72
2022/09/01 10:22:45;;;;;;;;;;;31.30;79.50;;;;;;5066940;28;19963;-73
2022/09/01 10:25:41;;;;;;;;;;;31.90;79.50;;;;;;5067153;28;19915;-72
2022/09/01 10:28:18;;;;;;;;;;;32.20;79.70;;;;;;5050691;28;19921;-72
2022/09/01 10:30:46;;;;;;;;;;;32.20;74.60;;;;;;5062995;28;19932;-72
2022/09/01 10:33:12;;;;;;;;;;;32.30;72.60;;;;;;5066084;28;20158;-73
2022/09/01 10:35:40;;;;;;;;;;;32.70;75.00;;;;;;5061648;28;19921;-73
2022/09/01 10:38:13;;;;;;;;;;;32.90;72.40;;;;;;5067053;28;19920;-73
2022/09/01 10:40:40;;;;;;;;;;;33.10;71.00;;;;;;5071153;28;20095;-72
2022/09/01 10:43:32;;;;;;;;;;;32.90;70.50;;;;;;5084730;28;19915;-71
2022/09/01 10:45:58;;;;;;;;;;;32.50;71.60;;;;;;5078706;28;19923;-77
2022/09/01 10:48:32;;;;;;;;;;;32.30;70.50;;;;;;5044972;28;20232;-75
2022/09/01 10:51:13;;;;;;;;;;;32.70;68.20;;;;;;5059200;28;19925;-77
2022/09/01 10:53:38;;;;;;;;;;;31.80;70.60;;;;;;5063719;28;19977;-77
2022/09/01 10:56:24;;;;;;;;;;;31.00;71.10;;;;;;5067360;28;19994;-76
2022/09/01 10:59:10;;;;;;;;;;;30.20;74.50;;;;;;5079505;28;20125;-78
2022/09/01 11:01:38;;;;;;;;;;;28.80;76.60;;;;;;5038345;28;20046;-79
2022/09/01 11:04:04;;;;;;;;;;;28.00;77.70;;;;;;5073023;28;19923;-77
2022/09/01 11:06:53;;;;;;;;;;;27.90;79.30;;;;;;5083011;28;19916;-77
2022/09/01 11:09:20;;;;;;;;;;;28.60;79.00;;;;;;5037212;28;20276;-77
2022/09/01 11:11:50;;;;;;;;;;;29.20;76.50;;;;;;5068548;28;19920;-76
2022/09/01 11:14:17;;;;;;;;;;;28.70;76.20;;;;;;5063501;28;20312;-76
2022/09/01 11:17:03;;;;;;;;;;;27.80;77.40;;;;;;5065769;28;20630;-76
2022/09/01 11:19:34;;;;;;;;;;;27.50;80.60;;;;;;5071758;28;20423;-76
2022/09/01 11:22:23;;;;;;;;;;;28.10;81.80;;;;;;5061567;28;19924;-76
2022/09/01 11:24:51;;;;;;;;;;;29.30;80.50;;;;;;5060173;28;19920;-76
2022/09/01 11:27:35;;;;;;;;;;;30.00;78.20;;;;;;5082307;28;20335;-74
2022/09/01 11:30:06;;;;;;;;;;;30.60;74.00;;;;;;5085357;28;20253;-75
2022/09/01 11:32:34;;;;;;;;;;;30.60;73.90;;;;;;5083571;28;19916;-75
2022/09/01 11:35:02;;;;;;;;;;;29.90;73.70;;;;;;5062014;28;19920;-76
2022/09/01 11:37:27;;;;;;;;;;;29.60;75.70;;;;;;5063911;28;19916;-73
2022/09/01 11:39:55;;;;;;;;;;;29.80;76.40;;;;;;5083950;28;19927;-71
2022/09/01 11:42:24;;;;;;;;;;;30.60;74.70;;;;;;5058216;28;19916;-71
2022/09/01 11:44:59;;;;;;;;;;;31.20;78.40;;;;;;5063797;28;19927;-71
2022/09/01 11:47:30;;;;;;;;;;;31.60;72.70;;;;;;5067323;28;19916;-71
2022/09/01 11:49:57;;;;;;;;;;;31.20;71.10;;;;;;5052320;28;20052;-71
2022/09/01 11:52:24;;;;;;;;;;;30.60;72.20;;;;;;5056334;28;19916;-70
2022/09/01 11:54:50;;;;;;;;;;;30.10;73.80;;;;;;5059057;28;19916;-71
2022/09/01 11:57:27;;;;;;;;;;;29.40;74.20;;;;;;5058727;28;20389;-71
2022/09/01 11:59:53;;;;;;;;;;;29.60;77.40;;;;;;5067050;28;19916;-70
2022/09/01 12:02:21;;;;;;;;;;;29.20;76.60;;;;;;5058670;28;19958;-71
2022/09/01 12:04:49;;;;;;;;;;;28.90;76.50;;;;;;5047107;28;20212;-71
2022/09/01 12:07:26;;;;;;;;;;;28.70;77.10;;;;;;5058686;28;20000;-71
2022/09/01 12:09:52;;;;;;;;;;;28.50;79.50;;;;;;5066080;28;20280;-70
2022/09/01 12:12:30;;;;;;;;;;;28.50;78.50;;;;;;5068050;28;19958;-70
2022/09/01 12:14:59;;;;;;;;;;;28.80;81.80;;;;;;5064032;28;19939;-71
2022/09/01 12:17:25;;;;;;;;;;;28.80;79.60;;;;;;5056187;28;20283;-71
2022/09/01 12:19:51;;;;;;;;;;;29.00;78.40;;;;;;5062680;28;19939;-70
2022/09/01 12:22:18;;;;;;;;;;;29.30;77.30;;;;;;5056638;28;19920;-70
2022/09/01 12:24:46;;;;;;;;;;;29.10;77.80;;;;;;5059416;28;19916;-70
2022/09/01 12:27:11;;;;;;;;;;;28.90;75.30;;;;;;5058851;28;19951;-70
2022/09/01 12:29:37;;;;;;;;;;;29.00;74.60;;;;;;5042435;28;20121;-71
2022/09/01 12:32:03;;;;;;;;;;;28.60;74.60;;;;;;5063212;28;19923;-70
2022/09/01 12:34:31;;;;;;;;;;;28.20;75.50;;;;;;5059632;28;19927;-71
2022/09/01 12:37:03;;;;;;;;;;;28.30;75.40;;;;;;5056970;28;19916;-71
2022/09/01 12:39:34;;;;;;;;;;;28.20;78.60;;;;;;5060025;28;20014;-70
2022/09/01 12:42:05;;;;;;;;;;;28.10;78.00;;;;;;5058441;28;19920;-71
2022/09/01 12:44:30;;;;;;;;;;;28.10;77.00;;;;;;5044363;28;20178;-71
2022/09/01 12:46:58;;;;;;;;;;;28.00;77.00;;;;;;5064102;28;20759;-71
2022/09/01 12:49:25;;;;;;;;;;;27.70;77.30;;;;;;5068019;28;19965;-70
2022/09/01 12:52:05;;;;;;;;;;;27.30;79.20;;;;;;5068080;28;20033;-71
2022/09/01 12:54:31;;;;;;;;;;;27.10;80.80;;;;;;5060858;28;19916;-70
2022/09/01 12:56:56;;;;;;;;;;;27.10;87.80;;;;;;5062006;28;19916;-72
2022/09/01 12:59:24;;;;;;;;;;;27.20;81.10;;;;;;5080525;28;19925;-72
2022/09/01 13:01:50;;;;;;;;;;;27.00;85.40;;;;;;5077747;28;19923;-71
2022/09/01 13:04:24;;;;;;;;;;;26.90;85.40;;;;;;5063286;28;19916;-72
2022/09/01 13:06:50;;;;;;;;;;;26.80;84.00;;;;;;5036115;28;20041;-72
2022/09/01 13:09:15;;;;;;;;;;;26.60;86.80;;;;;;5063742;28;19912;-72
2022/09/01 13:11:41;;;;;;;;;;;26.60;87.60;;;;;;5062996;28;20064;-72
2022/09/01 13:14:07;;;;;;;;;;;27.20;91.80;;;;;;5062410;28;20333;-72
2022/09/01 13:16:34;;;;;;;;;;;27.60;88.20;;;;;;5069617;28;20014;-72
2022/09/01 13:19:00;;;;;;;;;;;27.50;87.50;;;;;;5070834;28;19923;-72
2022/09/01 13:21:26;;;;;;;;;;;27.70;81.20;;;;;;5069056;28;19935;-71
2022/09/01 13:23:52;;;;;;;;;;;27.80;81.20;;;;;;5060029;28;19916;-71
2022/09/01 13:26:17;;;;;;;;;;;27.90;82.30;;;;;;5065804;28;20358;-71
2022/09/01 13:28:44;;;;;;;;;;;27.80;82.90;;;;;;5067602;28;19915;-71
2022/09/01 13:31:11;;;;;;;;;;;27.90;84.40;;;;;;5073718;28;20132;-71
2022/09/01 13:33:36;;;;;;;;;;;28.00;85.70;;;;;;5069395;28;19912;-71
2022/09/01 13:36:02;;;;;;;;;;;28.10;87.00;;;;;;5072527;28;20412;-71
2022/09/01 13:38:30;;;;;;;;;;;28.20;84.00;;;;;;5077369;28;20417;-71
2022/09/01 13:40:55;;;;;;;;;;;28.00;83.70;;;;;;5079944;28;19959;-71
2022/09/01 13:43:22;;;;;;;;;;;27.90;85.80;;;;;;5079207;28;19956;-71
2022/09/01 13:45:48;;;;;;;;;;;27.60;86.60;;;;;;5074707;28;19916;-71
2022/09/01 13:48:14;;;;;;;;;;;27.50;86.10;;;;;;5076863;28;20342;-71
2022/09/01 13:50:40;;;;;;;;;;;27.20;89.20;;;;;;5073694;28;19924;-71
2022/09/01 13:53:06;;;;;;;;;;;27.00;84.60;;;;;;5065500;28;19923;-70
2022/09/01 13:55:33;;;;;;;;;;;26.90;83.10;;;;;;5080050;28;20297;-70
2022/09/01 13:57:59;;;;;;;;;;;26.80;83.50;;;;;;5079208;28;19916;-71
2022/09/01 14:00:30;;;;;;;;;;;26.80;84.00;;;;;;5073787;28;20379;-71
2022/09/01 14:02:59;;;;;;;;;;;26.90;88.20;;;;;;5071412;28;19919;-71
2022/09/01 14:05:26;;;;;;;;;;;27.00;85.50;;;;;;5067303;28;20261;-71
2022/09/01 14:07:52;;;;;;;;;;;27.20;88.60;;;;;;5066728;28;20208;-71
2022/09/01 14:10:18;;;;;;;;;;;27.40;86.20;;;;;;5085574;28;19967;-71
2022/09/01 14:12:45;;;;;;;;;;;27.50;87.30;;;;;;5077768;28;19922;-71
2022/09/01 14:15:11;;;;;;;;;;;27.80;86.80;;;;;;5077536;28;20444;-71
2022/09/01 14:17:37;;;;;;;;;;;28.00;83.70;;;;;;5072456;28;21557;-71
2022/09/01 14:20:06;;;;;;;;;;;28.10;81.00;;;;;;5068633;28;19924;-71
2022/09/01 14:22:32;;;;;;;;;;;28.20;79.50;;;;;;5054872;28;19916;-71
2022/09/01 14:24:58;;;;;;;;;;;28.10;80.30;;;;;;5070873;28;19923;-71
2022/09/01 14:27:24;;;;;;;;;;;28.20;79.20;;;;;;5057491;28;19912;-71
2022/09/01 14:29:50;;;;;;;;;;;28.00;79.70;;;;;;5059229;28;19927;-71
2022/09/01 14:32:17;;;;;;;;;;;27.60;76.30;;;;;;5090272;28;19958;-71